Time;durP1;ratioP1;P1;durP2;ratioP2;P2;SDS_P1;SDS_P2;PMS_P1;PMS_P2;Temp;Humidity;BMP_temperature;BMP_pressure;BME280_temperature;BME280_humidity;BME280_pressure;Samples;Min_cycle;Max_cycle;Signal;HPM_P1;HPM_P2
2021/11/16 00:01:10;;;;;;;25.83;11.75;;;11.10;99.90;;;;;;5049636;28;20055;-86
2021/11/16 00:03:37;;;;;;;24.70;11.38;;;11.00;99.90;;;;;;5045125;28;20041;-85
2021/11/16 00:06:05;;;;;;;19.42;9.73;;;11.00;99.90;;;;;;5034978;28;20412;-86
2021/11/16 00:08:33;;;;;;;19.67;10.15;;;11.00;99.90;;;;;;5034710;28;20060;-86
2021/11/16 00:11:03;;;;;;;20.70;10.30;;;11.00;99.90;;;;;;5038130;28;20052;-85
2021/11/16 00:13:31;;;;;;;22.77;10.60;;;11.00;99.90;;;;;;5057459;28;20055;-86
2021/11/16 00:15:59;;;;;;;20.88;8.70;;;10.90;99.90;;;;;;5046019;28;20049;-86
2021/11/16 00:18:29;;;;;;;20.17;9.77;;;10.90;99.90;;;;;;5058875;28;20040;-85
2021/11/16 00:21:00;;;;;;;18.65;9.43;;;10.90;99.90;;;;;;5046489;28;20048;-85
2021/11/16 00:23:36;;;;;;;20.58;8.77;;;10.90;99.90;;;;;;5031200;28;20044;-85
2021/11/16 00:26:08;;;;;;;17.95;8.88;;;10.80;99.90;;;;;;5032989;28;20084;-85
2021/11/16 00:28:36;;;;;;;21.17;10.05;;;10.80;99.90;;;;;;5059649;28;20055;-85
2021/11/16 00:31:04;;;;;;;19.80;9.63;;;10.80;99.90;;;;;;5069218;28;20052;-86
2021/11/16 00:33:33;;;;;;;25.17;11.40;;;10.70;99.90;;;;;;5052781;28;20044;-86
2021/11/16 00:36:01;;;;;;;23.63;10.45;;;10.80;99.90;;;;;;5048421;28;20059;-85
2021/11/16 00:38:30;;;;;;;24.27;10.95;;;10.70;99.90;;;;;;5040279;28;20056;-86
2021/11/16 00:40:58;;;;;;;31.80;13.27;;;10.80;99.90;;;;;;5035457;28;20053;-86
2021/11/16 00:43:28;;;;;;;26.45;11.68;;;10.80;99.90;;;;;;5036504;28;20044;-86
2021/11/16 00:45:56;;;;;;;26.83;11.40;;;10.80;99.90;;;;;;5021974;28;20380;-85
2021/11/16 00:48:25;;;;;;;21.98;10.70;;;10.80;99.90;;;;;;5052790;28;20040;-86
2021/11/16 00:50:57;;;;;;;25.60;13.07;;;10.80;99.90;;;;;;5037295;28;20056;-85
2021/11/16 00:53:28;;;;;;;;;;;10.80;99.90;;;;;;5021004;28;20041;-86
2021/11/16 00:55:56;;;;;;;;;;;10.80;99.90;;;;;;5036936;28;19932;-86
2021/11/16 00:58:28;;;;;;;22.25;10.27;;;10.80;99.90;;;;;;5037020;28;20578;-85
2021/11/16 01:01:07;;;;;;;24.48;12.50;;;10.90;99.90;;;;;;5070306;28;20055;-86
2021/11/16 01:03:35;;;;;;;27.15;12.38;;;10.90;99.90;;;;;;5039654;28;20048;-85
2021/11/16 01:06:03;;;;;;;25.85;12.32;;;10.90;99.90;;;;;;5055270;28;20067;-85
2021/11/16 01:08:31;;;;;;;28.75;11.77;;;9.90;99.90;;;;;;5041581;28;20048;-85
2021/11/16 01:10:59;;;;;;;22.85;11.98;;;10.90;99.90;;;;;;5055577;28;20055;-85
2021/11/16 01:13:28;;;;;;;25.58;11.50;;;10.90;99.90;;;;;;5037465;28;20400;-85
2021/11/16 01:15:56;;;;;;;21.58;10.02;;;10.90;99.90;;;;;;5039381;28;20056;-85
2021/11/16 01:18:27;;;;;;;23.17;11.77;;;10.90;99.90;;;;;;5049531;28;20048;-86
2021/11/16 01:20:56;;;;;;;24.23;11.07;;;10.90;99.90;;;;;;5042244;28;20502;-85
2021/11/16 01:23:26;;;;;;;19.60;9.32;;;10.80;99.90;;;;;;5020359;28;20575;-85
2021/11/16 01:25:55;;;;;;;20.92;10.10;;;10.80;99.90;;;;;;5054688;28;20483;-85
2021/11/16 01:28:26;;;;;;;19.95;9.45;;;10.80;99.90;;;;;;5039273;28;20056;-85
2021/11/16 01:30:58;;;;;;;19.67;11.27;;;10.70;99.90;;;;;;5043337;28;20048;-85
2021/11/16 01:33:40;;;;;;;23.17;11.80;;;10.70;99.90;;;;;;5042188;28;20052;-84
2021/11/16 01:36:14;;;;;;;25.35;10.57;;;10.70;99.90;;;;;;5032467;28;20053;-85
2021/11/16 01:38:43;;;;;;;33.60;13.93;;;10.70;99.90;;;;;;5031708;28;20049;-86
2021/11/16 01:41:12;;;;;;;24.52;10.80;;;10.70;99.90;;;;;;5067786;28;20049;-86
2021/11/16 01:43:40;;;;;;;22.20;12.57;;;10.70;99.90;;;;;;5045656;28;20091;-84
2021/11/16 01:46:14;;;;;;;20.33;9.85;;;10.80;99.90;;;;;;5027022;28;20064;-86
2021/11/16 01:48:45;;;;;;;22.10;10.68;;;10.80;99.90;;;;;;5050153;28;20048;-84
2021/11/16 01:51:13;;;;;;;24.98;12.45;;;10.70;99.90;;;;;;5049735;28;20056;-85
2021/11/16 01:53:42;;;;;;;24.05;11.13;;;10.70;99.90;;;;;;5040256;28;20117;-85
2021/11/16 01:56:10;;;;;;;18.50;9.55;;;10.70;99.90;;;;;;5048106;28;20048;-85
2021/11/16 01:58:38;;;;;;;25.85;12.18;;;10.70;99.90;;;;;;5048775;28;20044;-86
2021/11/16 02:01:05;;;;;;;25.17;11.60;;;10.70;99.90;;;;;;5049170;28;20063;-85
2021/11/16 02:03:33;;;;;;;23.50;12.00;;;10.70;99.90;;;;;;5029542;28;20064;-85
2021/11/16 02:06:24;;;;;;;25.23;12.30;;;10.70;99.90;;;;;;5030839;28;20048;-85
2021/11/16 02:08:54;;;;;;;25.83;13.27;;;10.70;99.90;;;;;;5047693;28;20048;-85
2021/11/16 02:11:24;;;;;;;26.75;13.38;;;10.80;99.90;;;;;;5015123;28;20056;-86
2021/11/16 02:13:52;;;;;;;26.27;13.05;;;10.80;99.90;;;;;;5066932;28;20049;-86
2021/11/16 02:16:21;;;;;;;24.95;13.48;;;10.80;99.90;;;;;;5032990;28;20048;-86
2021/11/16 02:18:49;;;;;;;29.20;13.50;;;10.80;99.90;;;;;;5065387;28;20048;-86
2021/11/16 02:21:18;;;;;;;27.10;13.25;;;10.90;99.90;;;;;;5032116;28;20399;-85
2021/11/16 02:23:47;;;;;;;25.33;13.40;;;10.80;99.90;;;;;;5048794;28;20051;-85
2021/11/16 02:26:16;;;;;;;26.10;12.20;;;10.90;99.90;;;;;;5045251;28;20484;-85
2021/11/16 02:28:45;;;;;;;23.33;11.00;;;10.90;99.90;;;;;;5010717;28;20064;-84
2021/11/16 02:31:15;;;;;;;27.33;12.73;;;10.90;99.90;;;;;;5039024;28;20059;-85
2021/11/16 02:33:44;;;;;;;26.67;13.30;;;10.90;99.90;;;;;;5083351;28;20039;-86
2021/11/16 02:36:13;;;;;;;25.85;11.93;;;10.90;99.90;;;;;;5081113;28;20055;-85
2021/11/16 02:38:41;;;;;;;28.63;12.82;;;10.80;99.90;;;;;;5030688;28;20060;-85
2021/11/16 02:41:10;;;;;;;24.05;12.68;;;10.90;99.90;;;;;;5064932;28;20052;-85
2021/11/16 02:43:41;;;;;;;24.13;12.60;;;10.90;99.90;;;;;;5047408;28;20048;-84
2021/11/16 02:46:09;;;;;;;21.60;10.48;;;10.90;99.90;;;;;;5048279;28;20036;-85
2021/11/16 02:48:38;;;;;;;23.13;10.30;;;10.90;99.90;;;;;;5029785;28;20381;-86
2021/11/16 02:51:09;;;;;;;23.85;10.68;;;10.90;99.90;;;;;;5030241;28;20057;-86
2021/11/16 02:53:38;;;;;;;21.00;10.68;;;10.90;99.90;;;;;;5013912;28;20048;-85
2021/11/16 02:56:08;;;;;;;24.00;11.30;;;10.80;99.90;;;;;;5050119;28;20068;-85
2021/11/16 02:58:36;;;;;;;27.73;12.57;;;10.80;99.90;;;;;;5069217;28;20056;-85
2021/11/16 03:01:09;;;;;;;24.25;12.23;;;10.80;99.90;;;;;;5033146;28;20052;-85
2021/11/16 03:03:38;;;;;;;21.30;9.43;;;10.80;99.90;;;;;;5057859;28;20053;-84
2021/11/16 03:06:07;;;;;;;22.95;11.35;;;10.80;99.90;;;;;;5051910;28;20049;-85
2021/11/16 03:08:35;;;;;;;15.60;7.57;;;10.80;99.90;;;;;;5048701;28;20055;-85
2021/11/16 03:11:07;;;;;;;14.00;7.22;;;10.70;99.90;;;;;;5057462;28;20056;-85
2021/11/16 03:13:38;;;;;;;14.23;6.40;;;10.80;99.90;;;;;;5060747;28;20045;-85
2021/11/16 03:16:09;;;;;;;14.10;7.68;;;10.70;99.90;;;;;;5060839;28;20040;-85
2021/11/16 03:18:38;;;;;;;;;;;10.70;99.90;;;;;;5060235;28;20085;-85
2021/11/16 03:21:07;;;;;;;16.92;9.70;;;10.80;99.90;;;;;;5032018;28;19921;-85
2021/11/16 03:23:35;;;;;;;17.35;9.60;;;10.80;99.90;;;;;;5014110;28;20496;-85
2021/11/16 03:26:03;;;;;;;21.13;8.82;;;10.80;99.90;;;;;;5033737;28;20510;-85
2021/11/16 03:28:33;;;;;;;20.48;10.18;;;10.80;99.90;;;;;;5049540;28;20095;-85
2021/11/16 03:31:48;;;;;;;21.70;9.02;;;10.80;99.90;;;;;;5048593;28;20045;-86
2021/11/16 03:33:59;;;;;;;20.10;10.10;;;10.90;99.90;;;;;;5046083;28;20037;-85
2021/11/16 03:36:27;;;;;;;23.33;11.00;;;10.80;99.90;;;;;;5059289;28;20131;-85
2021/11/16 03:38:58;;;;;;;21.38;10.40;;;10.90;99.90;;;;;;5049397;28;20044;-86
2021/11/16 03:41:26;;;;;;;21.63;10.10;;;10.90;99.90;;;;;;5036958;28;20057;-85
2021/11/16 03:43:54;;;;;;;23.73;10.20;;;10.90;99.90;;;;;;5051803;28;20316;-85
2021/11/16 03:46:22;;;;;;;18.17;9.02;;;10.90;99.90;;;;;;4672503;28;9999835;-85
2021/11/16 03:48:51;;;;;;;22.50;11.90;;;10.90;99.90;;;;;;5000390;28;20049;-85
2021/11/16 03:51:19;;;;;;;21.33;10.02;;;10.90;99.90;;;;;;5016906;28;20056;-86
2021/11/16 03:53:47;;;;;;;20.30;10.10;;;10.80;99.90;;;;;;5023023;28;20511;-84
2021/11/16 03:56:15;;;;;;;21.55;9.48;;;10.90;99.90;;;;;;5071077;28;20048;-85
2021/11/16 03:58:44;;;;;;;16.08;7.40;;;10.80;99.90;;;;;;5053776;28;20075;-84
2021/11/16 04:01:13;;;;;;;18.45;9.10;;;10.80;99.90;;;;;;5048435;28;20541;-85
2021/11/16 04:03:41;;;;;;;18.20;9.23;;;10.80;99.90;;;;;;5051887;28;20060;-85
2021/11/16 04:06:10;;;;;;;18.15;9.38;;;10.80;99.90;;;;;;5071145;28;20048;-85
2021/11/16 04:08:38;;;;;;;17.00;8.85;;;10.70;99.90;;;;;;5035617;28;20048;-85
2021/11/16 04:11:06;;;;;;;19.63;8.68;;;10.70;99.90;;;;;;5050983;28;20049;-85
2021/11/16 04:13:34;;;;;;;19.40;8.52;;;10.70;99.90;;;;;;5036905;28;20115;-85
2021/11/16 04:16:02;;;;;;;16.65;8.45;;;10.70;99.90;;;;;;5052918;28;20063;-85
2021/11/16 04:18:31;;;;;;;19.42;9.23;;;10.70;99.90;;;;;;5079031;28;20045;-85
2021/11/16 04:20:59;;;;;;;23.27;9.40;;;10.70;99.90;;;;;;5052517;28;20061;-86
2021/11/16 04:23:27;;;;;;;21.00;8.48;;;10.70;99.90;;;;;;5013974;28;20088;-86
2021/11/16 04:25:58;;;;;;;18.23;9.85;;;10.60;99.90;;;;;;5033493;28;20041;-86
2021/11/16 04:28:25;;;;;;;20.08;8.73;;;10.60;99.90;;;;;;5032707;28;20049;-86
2021/11/16 04:30:54;;;;;;;21.85;9.93;;;10.60;99.90;;;;;;5016506;28;20571;-85
2021/11/16 04:33:22;;;;;;;22.73;9.05;;;10.90;99.90;;;;;;5033373;28;20048;-86
2021/11/16 04:35:55;;;;;;;17.17;8.35;;;10.50;99.90;;;;;;5046234;28;20411;-85
2021/11/16 04:38:23;;;;;;;23.40;10.95;;;10.50;99.90;;;;;;5062696;28;20047;-84
2021/11/16 04:40:54;;;;;;;20.13;10.18;;;10.60;99.90;;;;;;5052888;28;20056;-85
2021/11/16 04:43:25;;;;;;;18.67;8.70;;;10.50;99.90;;;;;;5048052;28;20068;-85
2021/11/16 04:45:58;;;;;;;23.88;9.48;;;10.50;99.90;;;;;;5035970;28;20048;-85
2021/11/16 05:04:23;;;;;;;23.27;9.57;;;10.40;99.90;;;;;;5052111;28;20048;-85
2021/11/16 05:06:53;;;;;;;20.95;9.63;;;10.40;99.90;;;;;;5043331;28;20064;-86
2021/11/16 05:09:21;;;;;;;22.53;10.97;;;10.40;99.90;;;;;;5070051;28;20040;-85
2021/11/16 05:11:49;;;;;;;21.15;9.38;;;10.40;99.90;;;;;;5035439;28;20293;-86
2021/11/16 05:14:17;;;;;;;22.42;9.85;;;10.30;99.90;;;;;;5051869;28;20392;-86
2021/11/16 05:16:45;;;;;;;23.30;9.77;;;10.30;99.90;;;;;;5018670;28;20052;-86
2021/11/16 05:19:13;;;;;;;22.40;10.07;;;10.30;99.90;;;;;;5052396;28;20051;-85
2021/11/16 05:21:41;;;;;;;18.50;8.70;;;10.30;99.90;;;;;;5051728;28;20045;-86
2021/11/16 05:24:10;;;;;;;19.70;9.10;;;10.30;99.90;;;;;;5051541;28;20044;-86
2021/11/16 05:26:37;;;;;;;19.25;9.30;;;10.30;99.90;;;;;;5034966;28;20048;-85
2021/11/16 05:29:05;;;;;;;20.73;9.98;;;10.20;99.90;;;;;;5035319;28;20059;-86
2021/11/16 05:31:32;;;;;;;21.20;10.50;;;10.10;99.90;;;;;;5035237;28;20057;-85
2021/11/16 05:34:00;;;;;;;20.92;9.98;;;10.20;99.90;;;;;;5035781;28;20051;-86
2021/11/16 05:36:28;;;;;;;20.17;10.27;;;10.10;99.90;;;;;;5041435;28;20059;-85
2021/11/16 05:38:56;;;;;;;23.50;11.07;;;10.00;99.90;;;;;;5068924;28;20044;-86
2021/11/16 05:41:23;;;;;;;17.15;8.50;;;10.10;99.90;;;;;;5067972;28;20491;-85
2021/11/16 05:43:51;;;;;;;22.10;10.98;;;10.10;99.90;;;;;;5010869;28;20056;-86
2021/11/16 05:46:23;;;;;;;20.67;9.77;;;10.10;99.90;;;;;;5069286;28;20048;-86
2021/11/16 05:48:52;;;;;;;23.75;9.48;;;10.00;99.90;;;;;;5030468;28;20044;-86
2021/11/16 05:51:24;;;;;;;23.70;10.23;;;10.10;99.90;;;;;;5030198;28;20064;-86
2021/11/16 05:53:58;;;;;;;22.83;11.68;;;10.10;99.90;;;;;;5049202;28;20063;-85
2021/11/16 05:56:28;;;;;;;27.60;10.18;;;10.10;99.90;;;;;;5077013;28;20051;-86
2021/11/16 05:58:57;;;;;;;23.70;11.15;;;10.10;99.90;;;;;;5068312;28;20040;-86
2021/11/16 06:01:28;;;;;;;22.15;11.52;;;10.10;99.90;;;;;;5021474;28;20057;-85
2021/11/16 06:03:56;;;;;;;;;;;10.10;99.90;;;;;;5033488;28;20041;-85
2021/11/16 06:06:32;;;;;;;19.45;10.43;;;10.10;99.90;;;;;;5031785;28;19921;-86
2021/11/16 06:09:04;;;;;;;22.58;10.43;;;10.10;99.90;;;;;;4994849;28;20060;-85
2021/11/16 06:11:33;;;;;;;22.50;9.95;;;10.10;99.90;;;;;;4995145;28;20494;-85
2021/11/16 06:14:02;;;;;;;25.85;10.25;;;10.00;99.90;;;;;;5012357;28;20057;-86
2021/11/16 06:16:31;;;;;;;23.55;11.18;;;10.00;99.90;;;;;;5031441;28;20072;-86
2021/11/16 06:19:04;;;;;;;22.13;10.00;;;9.90;99.90;;;;;;5009779;28;20045;-85
2021/11/16 06:21:32;;;;;;;26.60;10.55;;;9.90;99.90;;;;;;5043952;28;20064;-85
2021/11/16 06:24:00;;;;;;;25.98;12.18;;;9.80;99.90;;;;;;5032728;28;20056;-85
2021/11/16 06:26:32;;;;;;;25.75;12.18;;;9.80;99.90;;;;;;5028084;28;20045;-86
2021/11/16 06:29:06;;;;;;;22.02;10.50;;;9.70;99.90;;;;;;5007897;28;20049;-86
2021/11/16 06:31:35;;;;;;;26.50;12.10;;;9.60;99.90;;;;;;4992113;28;20053;-86
2021/11/16 06:34:05;;;;;;;27.20;13.68;;;9.50;99.90;;;;;;5028119;28;20056;-84
2021/11/16 06:36:36;;;;;;;27.85;12.75;;;9.60;99.90;;;;;;5001037;28;20135;-85
2021/11/16 06:39:08;;;;;;;23.17;13.65;;;9.40;99.90;;;;;;5018249;28;20049;-86
2021/11/16 06:41:36;;;;;;;24.83;12.48;;;9.20;99.90;;;;;;5030824;28;20498;-86
2021/11/16 06:44:05;;;;;;;22.73;12.18;;;9.70;99.90;;;;;;5020829;28;20060;-86
2021/11/16 06:46:33;;;;;;;26.25;11.95;;;9.00;99.90;;;;;;5041723;28;20053;-85
2021/11/16 06:49:04;;;;;;;22.23;10.98;;;8.90;99.90;;;;;;5038738;28;20048;-86
2021/11/16 06:51:37;;;;;;;22.85;10.90;;;8.90;99.90;;;;;;5043584;28;20049;-85
2021/11/16 06:54:17;;;;;;;23.63;10.40;;;8.80;99.90;;;;;;5017154;28;20057;-85
2021/11/16 06:56:48;;;;;;;21.20;10.13;;;8.70;99.90;;;;;;5047567;28;20053;-86
2021/11/16 06:59:17;;;;;;;;;;;8.70;99.90;;;;;;5021962;28;20507;-86
2021/11/16 07:01:45;;;;;;;22.50;12.75;;;8.50;99.90;;;;;;5038037;28;19927;-85
2021/11/16 07:04:14;;;;;;;23.80;12.65;;;8.50;99.90;;;;;;5018245;28;20053;-86
2021/11/16 07:06:45;;;;;;;25.67;13.00;;;8.40;99.90;;;;;;5020263;28;20056;-85
2021/11/16 07:09:14;;;;;;;22.60;11.32;;;8.40;99.90;;;;;;5067535;28;20060;-84
2021/11/16 07:11:48;;;;;;;26.40;12.30;;;8.30;99.90;;;;;;5052896;28;20060;-85
2021/11/16 07:14:36;;;;;;;22.33;11.38;;;8.20;99.90;;;;;;5038397;28;20052;-85
2021/11/16 07:17:13;;;;;;;29.63;14.57;;;8.20;99.90;;;;;;5050849;28;20403;-85
2021/11/16 07:19:47;;;;;;;30.35;14.57;;;8.10;99.90;;;;;;5032054;28;20044;-84
2021/11/16 07:22:27;;;;;;;28.25;13.88;;;8.10;99.90;;;;;;5037596;28;20040;-85
2021/11/16 07:24:59;;;;;;;31.10;16.02;;;8.00;99.90;;;;;;5071914;28;20056;-85
2021/11/16 07:27:36;;;;;;;29.27;14.80;;;8.00;99.90;;;;;;5061599;28;20037;-85
2021/11/16 07:30:12;;;;;;;27.80;14.35;;;8.00;99.90;;;;;;5046742;28;20048;-85
2021/11/16 07:32:57;;;;;;;32.20;15.57;;;8.00;99.90;;;;;;5061979;28;20059;-86
2021/11/16 07:35:32;;;;;;;34.20;15.93;;;7.90;99.90;;;;;;5060543;28;20049;-84
2021/11/16 07:38:03;;;;;;;31.70;16.92;;;7.90;99.90;;;;;;5073999;28;20041;-85
2021/11/16 07:40:43;;;;;;;33.40;16.63;;;7.90;99.90;;;;;;5052329;28;20052;-85
2021/11/16 07:43:18;;;;;;;28.65;16.20;;;8.70;99.90;;;;;;5061803;28;20047;-84
2021/11/16 07:45:53;;;;;;;35.40;16.45;;;7.80;99.90;;;;;;5045401;28;20048;-86
2021/11/16 07:48:31;;;;;;;32.78;18.33;;;7.80;99.90;;;;;;5042567;28;20045;-84
2021/11/16 07:51:06;;;;;;;31.35;16.02;;;7.80;99.90;;;;;;5077856;28;20045;-85
2021/11/16 07:53:37;;;;;;;28.75;14.93;;;7.80;99.90;;;;;;5047554;28;20059;-83
2021/11/16 07:56:11;;;;;;;37.70;17.95;;;7.90;99.90;;;;;;5032143;28;20051;-83
2021/11/16 07:58:50;;;;;;;35.65;17.73;;;7.70;99.90;;;;;;5059981;28;20201;-85
2021/11/16 08:01:37;;;;;;;35.47;17.67;;;7.30;99.90;;;;;;5062053;28;20052;-86
2021/11/16 08:09:54;;;;;;;35.90;17.77;;;7.70;99.90;;;;;;5027830;28;20045;-86
2021/11/16 08:12:28;;;;;;;43.83;17.13;;;7.70;99.90;;;;;;5026089;28;20028;-86
2021/11/16 08:15:07;;;;;;;34.92;18.02;;;7.70;99.90;;;;;;5022875;28;20049;-86
2021/11/16 08:17:36;;;;;;;;;;;7.70;99.90;;;;;;5044985;28;20056;-85
2021/11/16 08:20:08;;;;;;;28.73;17.85;;;7.80;99.90;;;;;;5019552;28;19929;-86
2021/11/16 08:22:36;;;;;;;37.13;17.67;;;7.70;99.90;;;;;;5040596;28;20095;-85
2021/11/16 08:25:05;;;;;;;38.22;18.52;;;7.70;99.90;;;;;;5027114;28;20425;-86
2021/11/16 08:27:36;;;;;;;32.15;17.38;;;7.70;99.90;;;;;;4988578;28;20041;-86
2021/11/16 08:30:13;;;;;;;39.10;18.65;;;8.00;99.90;;;;;;5008545;28;20847;-85
2021/11/16 08:32:43;;;;;;;35.97;19.65;;;7.80;99.90;;;;;;5043159;28;20049;-83
2021/11/16 08:35:22;;;;;;;43.43;20.20;;;7.70;99.90;;;;;;5036015;28;20052;-85
2021/11/16 08:37:56;;;;;;;33.92;18.17;;;7.80;99.90;;;;;;5018581;28;20071;-84
2021/11/16 08:40:26;;;;;;;29.30;16.40;;;7.90;99.90;;;;;;5037539;28;20204;-85
2021/11/16 08:43:01;;;;;;;30.75;18.02;;;7.90;99.90;;;;;;5053938;28;20068;-84
2021/11/16 08:45:33;;;;;;;38.22;18.48;;;7.90;99.90;;;;;;5039078;28;20058;-86
2021/11/16 08:48:11;;;;;;;29.85;17.23;;;8.00;99.90;;;;;;5052530;28;20063;-85
2021/11/16 08:50:45;;;;;;;34.35;19.85;;;8.00;99.90;;;;;;4709297;28;10000161;-84
2021/11/16 08:53:20;;;;;;;33.13;18.67;;;8.00;99.90;;;;;;5042892;28;20056;-84
2021/11/16 08:55:50;;;;;;;36.05;17.63;;;8.00;99.90;;;;;;5021018;28;20049;-86
2021/11/16 08:58:18;;;;;;;30.42;16.98;;;8.10;99.90;;;;;;5057355;28;20635;-86
2021/11/16 09:01:15;;;;;;;37.13;18.50;;;8.80;99.90;;;;;;5027239;28;20037;-84
2021/11/16 09:03:45;;;;;;;31.40;18.45;;;8.20;99.90;;;;;;5032415;28;20500;-85
2021/11/16 09:06:20;;;;;;;39.88;21.70;;;7.40;99.90;;;;;;5023177;28;20032;-84
2021/11/16 09:09:05;;;;;;;34.60;16.80;;;8.60;99.90;;;;;;5033219;28;20060;-84
2021/11/16 09:11:35;;;;;;;32.50;19.13;;;8.30;99.90;;;;;;5055275;28;20059;-82
2021/11/16 09:14:11;;;;;;;32.17;17.05;;;8.40;99.90;;;;;;5004116;28;20048;-83
2021/11/16 09:16:41;;;;;;;36.95;19.80;;;8.40;99.90;;;;;;5036579;28;20055;-85
2021/11/16 09:19:23;;;;;;;31.75;17.05;;;8.50;99.90;;;;;;5040801;28;20049;-81
2021/11/16 09:21:51;;;;;;;28.40;16.35;;;8.50;99.90;;;;;;5075286;28;20045;-85
2021/11/16 09:24:19;;;;;;;34.83;19.77;;;8.50;99.90;;;;;;5072215;28;20053;-84
2021/11/16 09:29:22;;;;;;;36.38;19.38;;;8.70;99.90;;;;;;5051169;28;20064;-83
2021/11/16 09:32:01;;;;;;;35.08;17.80;;;8.70;99.90;;;;;;5048313;28;20045;-83
2021/11/16 09:34:32;;;;;;;35.72;17.00;;;8.80;99.90;;;;;;5034363;28;20057;-84
2021/11/16 09:37:02;;;;;;;;;;;8.80;99.90;;;;;;5044741;28;20048;-82
2021/11/16 09:39:45;;;;;;;35.85;16.75;;;8.90;99.90;;;;;;5037199;28;19925;-84
2021/11/16 09:42:27;;;;;;;30.67;16.48;;;8.90;99.90;;;;;;5016925;28;20041;-83
2021/11/16 09:45:04;;;;;;;40.60;20.35;;;9.00;99.90;;;;;;5046462;28;20506;-84
2021/11/16 09:47:38;;;;;;;39.10;19.08;;;9.00;99.90;;;;;;5028220;28;20049;-84
2021/11/16 09:50:10;;;;;;;33.63;17.13;;;9.10;99.90;;;;;;5030245;28;20049;-84
2021/11/16 09:52:46;;;;;;;29.17;16.95;;;9.20;99.90;;;;;;5014946;28;20057;-83
2021/11/16 09:55:17;;;;;;;26.55;16.17;;;8.50;99.90;;;;;;5031029;28;20316;-84
2021/11/16 09:57:51;;;;;;;31.42;17.65;;;9.30;99.90;;;;;;5041533;28;20052;-83
2021/11/16 10:00:20;;;;;;;29.92;16.20;;;9.30;99.90;;;;;;5040164;28;20064;-84
2021/11/16 10:02:52;;;;;;;31.25;15.05;;;9.40;99.90;;;;;;5047919;28;20060;-83
2021/11/16 10:05:26;;;;;;;35.20;14.15;;;9.40;99.90;;;;;;5032368;28;20041;-85
2021/11/16 10:07:57;;;;;;;30.90;17.45;;;9.50;99.90;;;;;;5034269;28;20044;-85
2021/11/16 10:10:28;;;;;;;27.42;14.55;;;9.60;99.90;;;;;;5047675;28;20040;-86
2021/11/16 10:12:58;;;;;;;26.52;12.25;;;9.60;99.90;;;;;;5047191;28;20052;-84
2021/11/16 10:15:30;;;;;;;29.58;13.68;;;9.70;99.90;;;;;;5033955;28;20045;-85
2021/11/16 10:17:59;;;;;;;29.20;15.15;;;9.80;99.90;;;;;;5044867;28;20055;-85
2021/11/16 10:20:30;;;;;;;32.22;15.70;;;9.90;99.90;;;;;;5045056;28;20036;-84
2021/11/16 10:23:39;;;;;;;23.08;13.45;;;10.00;99.90;;;;;;5033929;28;20746;-85
2021/11/16 10:26:09;;;;;;;28.80;14.07;;;10.00;99.90;;;;;;5070879;28;20067;-85
2021/11/16 10:28:41;;;;;;;31.48;17.80;;;10.10;99.90;;;;;;5070479;28;20055;-83
2021/11/16 10:31:10;;;;;;;31.40;19.00;;;10.20;99.90;;;;;;5068897;28;20052;-84
2021/11/16 10:33:45;;;;;;;31.08;14.27;;;10.20;99.90;;;;;;5050472;28;20053;-85
2021/11/16 10:36:15;;;;;;;25.13;12.55;;;10.30;99.90;;;;;;5069806;28;20052;-85
2021/11/16 10:38:46;;;;;;;29.33;13.85;;;10.30;99.90;;;;;;5071012;28;20052;-85
2021/11/16 10:41:16;;;;;;;;;;;10.40;99.90;;;;;;5053814;28;20049;-84
2021/11/16 10:43:59;;;;;;;26.70;12.77;;;10.40;99.90;;;;;;5063701;28;19920;-84
2021/11/16 10:46:32;;;;;;;29.65;15.23;;;10.50;99.90;;;;;;5060647;28;20049;-84
2021/11/16 10:49:16;;;;;;;26.85;13.55;;;10.50;99.90;;;;;;5041281;28;20049;-84
2021/11/16 10:51:47;;;;;;;27.70;13.98;;;10.60;99.90;;;;;;5063741;28;20055;-84
2021/11/16 10:54:18;;;;;;;30.17;14.52;;;10.60;99.90;;;;;;5048257;28;20404;-84
2021/11/16 10:57:00;;;;;;;24.23;12.18;;;10.50;99.90;;;;;;5057735;28;20064;-84
2021/11/16 10:59:31;;;;;;;24.90;13.85;;;10.60;99.90;;;;;;5020839;28;20576;-83
2021/11/16 11:02:01;;;;;;;28.35;15.25;;;10.60;99.90;;;;;;5035825;28;20053;-84
2021/11/16 11:04:39;;;;;;;;;;;10.60;99.90;;;;;;5046974;28;20844;-84
2021/11/16 11:07:11;;;;;;;26.02;12.27;;;10.60;99.90;;;;;;5042762;28;19928;-85
2021/11/16 11:09:57;;;;;;;23.27;10.93;;;10.60;99.90;;;;;;5045749;28;20059;-85
2021/11/16 11:12:29;;;;;;;26.48;13.23;;;10.60;99.90;;;;;;5045323;28;20112;-86
2021/11/16 11:14:57;;;;;;;20.65;10.27;;;10.70;99.90;;;;;;5029792;28;20055;-84
2021/11/16 11:17:33;;;;;;;26.60;11.85;;;10.70;99.90;;;;;;5070287;28;21244;-85
2021/11/16 11:20:12;;;;;;;24.63;10.98;;;10.80;99.90;;;;;;5037373;28;20056;-83
2021/11/16 11:22:43;;;;;;;28.33;11.77;;;10.80;99.90;;;;;;5037860;28;20056;-88
2021/11/16 11:25:37;;;;;;;18.37;8.77;;;10.90;99.90;;;;;;5034824;28;20520;-85
2021/11/16 11:28:19;;;;;;;18.23;9.38;;;11.00;99.90;;;;;;5047786;28;20309;-85
2021/11/16 11:30:47;;;;;;;27.15;10.50;;;11.00;99.90;;;;;;5071122;28;20041;-84
2021/11/16 11:33:16;;;;;;;21.10;11.13;;;11.10;99.90;;;;;;5068909;28;20052;-86
2021/11/16 11:35:44;;;;;;;26.13;10.77;;;11.20;99.90;;;;;;5041656;28;20053;-85
2021/11/16 11:38:13;;;;;;;21.02;10.10;;;11.40;99.90;;;;;;5042364;28;20052;-85
2021/11/16 11:40:42;;;;;;;22.83;10.48;;;11.40;99.90;;;;;;5013875;28;20037;-86
2021/11/16 11:43:18;;;;;;;23.13;11.05;;;11.50;99.90;;;;;;5027620;28;20056;-86
2021/11/16 11:45:47;;;;;;;20.67;9.60;;;11.60;99.90;;;;;;5046071;28;20051;-84
2021/11/16 11:48:22;;;;;;;17.30;8.90;;;11.60;99.90;;;;;;5026049;28;20502;-85
2021/11/16 11:50:52;;;;;;;23.17;11.10;;;11.70;99.90;;;;;;5041389;28;20568;-85
2021/11/16 11:53:25;;;;;;;15.52;7.88;;;11.80;99.90;;;;;;5025170;28;20051;-84
2021/11/16 11:55:57;;;;;;;23.15;8.93;;;11.90;99.90;;;;;;5041061;28;20048;-85
2021/11/16 11:58:28;;;;;;;21.42;10.23;;;11.90;99.90;;;;;;5019056;28;20632;-85
2021/11/16 12:01:06;;;;;;;24.63;10.77;;;11.90;99.90;;;;;;5033910;28;20057;-86
2021/11/16 12:03:39;;;;;;;20.10;10.60;;;11.90;99.90;;;;;;5057700;28;20061;-85
2021/11/16 12:06:08;;;;;;;22.85;10.85;;;11.80;99.90;;;;;;5045292;28;20068;-85
2021/11/16 12:08:38;;;;;;;22.90;9.70;;;11.80;99.90;;;;;;5013558;28;20063;-84
2021/11/16 12:11:07;;;;;;;21.42;8.82;;;11.70;99.90;;;;;;5030962;28;20052;-86
2021/11/16 12:13:39;;;;;;;24.83;11.38;;;11.90;99.90;;;;;;5066178;28;20036;-84
2021/11/16 12:16:34;;;;;;;20.17;9.20;;;11.80;99.90;;;;;;5046205;28;20040;-84
2021/11/16 12:19:14;;;;;;;25.13;12.38;;;11.90;99.90;;;;;;5053626;28;20051;-88
2021/11/16 12:21:46;;;;;;;18.80;9.25;;;12.00;99.90;;;;;;5014566;28;20407;-85
2021/11/16 12:24:32;;;;;;;19.08;9.15;;;12.90;99.90;;;;;;5032390;28;20044;-84
2021/11/16 12:27:07;;;;;;;23.33;9.00;;;12.10;99.90;;;;;;5040265;28;20040;-85
2021/11/16 12:29:50;;;;;;;22.65;9.90;;;12.10;99.90;;;;;;5020059;28;20040;-85
2021/11/16 12:32:59;;;;;;;19.58;9.32;;;12.20;99.90;;;;;;5030243;28;20049;-86
2021/11/16 12:35:27;;;;;;;18.88;9.25;;;12.30;99.90;;;;;;5009377;28;20057;-86
2021/11/16 12:37:56;;;;;;;19.58;9.27;;;12.30;99.90;;;;;;5051129;28;20040;-85
2021/11/16 12:40:33;;;;;;;21.15;9.82;;;12.40;99.90;;;;;;5070412;28;20061;-85
2021/11/16 12:43:13;;;;;;;21.63;9.23;;;12.40;99.90;;;;;;5072655;28;20033;-87
2021/11/16 12:45:46;;;;;;;18.85;7.38;;;12.50;99.90;;;;;;5028188;28;20048;-85
2021/11/16 12:48:17;;;;;;;17.02;7.63;;;12.50;99.90;;;;;;5058342;28;20045;-85
2021/11/16 12:51:15;;;;;;;15.82;7.20;;;12.50;99.90;;;;;;5052017;28;20488;-83
2021/11/16 12:53:50;;;;;;;18.50;8.98;;;12.50;99.90;;;;;;5049248;28;20048;-84
2021/11/16 12:56:52;;;;;;;20.73;8.90;;;12.50;99.90;;;;;;5051268;28;20812;-85
2021/11/16 12:59:23;;;;;;;19.65;7.85;;;12.50;99.90;;;;;;5018033;28;20590;-86
2021/11/16 13:01:54;;;;;;;16.17;7.53;;;12.50;99.90;;;;;;5049160;28;20055;-85
2021/11/16 13:04:44;;;;;;;16.15;6.63;;;12.50;99.90;;;;;;5052109;28;20052;-85
2021/11/16 13:07:33;;;;;;;12.25;6.03;;;12.50;99.90;;;;;;5021331;28;20037;-86
2021/11/16 13:10:06;;;;;;;11.65;5.55;;;12.60;99.90;;;;;;5051056;28;20057;-85
2021/11/16 13:12:35;;;;;;;13.90;5.90;;;12.70;99.90;;;;;;5069000;28;20929;-86
2021/11/16 13:15:11;;;;;;;14.98;5.88;;;12.80;99.90;;;;;;5051247;28;20053;-84
2021/11/16 13:17:59;;;;;;;13.88;4.85;;;12.80;99.90;;;;;;5052301;28;20041;-84
2021/11/16 13:20:44;;;;;;;14.43;6.97;;;12.90;99.90;;;;;;5052962;28;20051;-86
2021/11/16 13:23:30;;;;;;;22.13;6.93;;;12.90;99.90;;;;;;5071901;28;20051;-85
2021/11/16 13:26:05;;;;;;;19.73;7.97;;;12.90;99.90;;;;;;5040649;28;20053;-87